createdAt,value
2019-05-10T00:00:15.552Z,98.13
2019-05-10T00:03:02.595Z,97.94
2019-05-10T00:05:49.931Z,98.05
2019-05-10T00:08:36.572Z,97.29
2019-05-10T00:11:34.539Z,96.97
2019-05-10T00:14:18.291Z,97.07
2019-05-10T00:16:48.237Z,97.20
2019-05-10T00:19:16.998Z,96.66
2019-05-10T00:21:45.759Z,95.65
2019-05-10T00:24:14.434Z,90.07
2019-05-10T00:26:43.122Z,86.71
2019-05-10T00:29:12.054Z,86.33
2019-05-10T00:31:40.961Z,86.96
2019-05-10T00:34:09.977Z,86.15
2019-05-10T00:36:38.701Z,85.72
2019-05-10T00:39:07.726Z,85.04
2019-05-10T00:41:36.418Z,85.81
2019-05-10T00:44:05.255Z,85.78
2019-05-10T00:46:33.952Z,86.42
2019-05-10T00:49:02.624Z,86.60
2019-05-10T00:51:31.290Z,86.78
2019-05-10T00:53:59.976Z,86.83
2019-05-10T00:56:28.689Z,87.27
2019-05-10T00:58:57.371Z,87.20
2019-05-10T01:01:26.029Z,87.17
2019-05-10T01:03:54.759Z,87.34
2019-05-10T01:06:23.457Z,87.51
2019-05-10T01:08:52.161Z,88.28
2019-05-10T01:11:20.838Z,88.82
2019-05-10T01:13:49.513Z,88.59
2019-05-10T01:16:18.599Z,88.29
2019-05-10T01:18:47.275Z,88.73
2019-05-10T01:21:15.968Z,89.10
2019-05-10T01:23:44.659Z,88.91
2019-05-10T01:26:13.393Z,89.87
2019-05-10T01:28:42.065Z,89.68
2019-05-10T01:31:10.753Z,90.56
2019-05-10T01:33:39.487Z,91.22
2019-05-10T01:36:08.158Z,91.40
2019-05-10T01:38:36.845Z,90.78
2019-05-10T01:41:05.496Z,91.87
2019-05-10T01:43:34.161Z,90.96
2019-05-10T01:46:02.928Z,92.07
2019-05-10T01:48:31.611Z,92.53
2019-05-10T01:51:00.270Z,92.96
2019-05-10T01:53:28.941Z,92.38
2019-05-10T01:55:57.594Z,91.95
2019-05-10T01:58:26.259Z,92.38
2019-05-10T02:00:55.024Z,92.39
2019-05-10T02:03:23.688Z,91.88
2019-05-10T02:05:52.348Z,92.06
2019-05-10T02:08:21.044Z,91.87
2019-05-10T02:10:49.696Z,91.22
2019-05-10T02:13:18.353Z,90.98
2019-05-10T02:15:47.035Z,90.43
2019-05-10T02:18:15.839Z,91.76
2019-05-10T02:20:44.499Z,90.04
2019-05-10T02:23:13.199Z,89.93
2019-05-10T02:25:41.856Z,89.85
2019-05-10T02:28:10.598Z,89.12
2019-05-10T02:30:39.288Z,89.26
2019-05-10T02:33:07.941Z,88.99
2019-05-10T02:35:36.627Z,87.44
2019-05-10T02:38:05.296Z,87.43
2019-05-10T02:40:33.961Z,87.94
2019-05-10T02:43:02.637Z,88.65
2019-05-10T02:45:31.357Z,87.88
2019-05-10T02:48:00.013Z,87.29
2019-05-10T02:50:28.706Z,87.78
2019-05-10T02:52:57.382Z,87.99
2019-05-10T02:55:26.607Z,88.61
2019-05-10T02:57:55.612Z,89.30
2019-05-10T03:00:25.550Z,87.14
2019-05-10T03:02:56.095Z,86.60
2019-05-10T03:05:28.441Z,87.35
2019-05-10T03:07:58.837Z,86.00
2019-05-10T03:10:31.531Z,87.13
2019-05-10T03:13:01.444Z,87.32
2019-05-10T03:15:37.320Z,87.85
2019-05-10T03:18:07.127Z,86.88
2019-05-10T03:20:38.446Z,87.08
2019-05-10T03:23:10.460Z,87.66
2019-05-10T03:25:39.191Z,87.23
2019-05-10T03:28:07.857Z,87.79
2019-05-10T03:30:36.609Z,89.29
2019-05-10T03:33:05.297Z,89.38
2019-05-10T03:35:34.253Z,89.62
2019-05-10T03:38:02.916Z,90.56
2019-05-10T03:40:32.656Z,91.21
2019-05-10T03:43:01.310Z,92.16
2019-05-10T03:45:29.987Z,91.36
2019-05-10T03:47:58.639Z,91.08
2019-05-10T03:50:27.325Z,91.50
2019-05-10T03:52:55.978Z,92.49
2019-05-10T03:55:24.639Z,92.73
2019-05-10T03:57:53.321Z,94.78
2019-05-10T04:00:23.618Z,95.17
2019-05-10T04:02:52.275Z,94.85
2019-05-10T04:05:20.949Z,95.74
2019-05-10T04:07:49.604Z,96.45
2019-05-10T04:10:20.941Z,96.31
2019-05-10T04:12:48.846Z,95.40
2019-05-10T04:15:17.594Z,95.20
2019-05-10T04:17:50.176Z,94.84
2019-05-10T04:20:16.795Z,95.12
2019-05-10T04:22:45.508Z,94.31
2019-05-10T04:25:14.345Z,91.81
2019-05-10T04:27:43.006Z,91.87
2019-05-10T04:30:12.248Z,91.75
2019-05-10T04:32:40.899Z,91.40
2019-05-10T04:35:09.689Z,90.08
2019-05-10T04:37:38.340Z,90.08
2019-05-10T04:40:07.558Z,89.59
2019-05-10T04:42:36.243Z,89.78
2019-05-10T04:45:05.613Z,89.79
2019-05-10T04:47:34.262Z,88.18
2019-05-10T04:50:02.971Z,88.38
2019-05-10T04:52:31.657Z,87.96
2019-05-10T04:55:00.342Z,88.42
2019-05-10T04:57:29.009Z,87.81
2019-05-10T04:59:57.688Z,85.71
2019-05-10T05:02:26.383Z,87.27
2019-05-10T05:04:55.056Z,87.22
2019-05-10T05:07:23.722Z,87.34
2019-05-10T05:09:52.402Z,87.06
2019-05-10T05:12:21.068Z,86.71
2019-05-10T05:14:49.749Z,86.80
2019-05-10T05:17:18.405Z,86.36
2019-05-10T05:19:47.107Z,86.61
2019-05-10T05:22:15.812Z,86.17
2019-05-10T05:24:44.512Z,83.70
2019-05-10T05:27:13.181Z,84.24
2019-05-10T05:29:41.850Z,82.62
2019-05-10T05:32:13.336Z,81.48
2019-05-10T05:34:40.941Z,82.09
2019-05-10T05:37:09.600Z,82.73
2019-05-10T05:39:38.334Z,83.34
2019-05-10T05:42:06.967Z,82.45
2019-05-10T05:44:35.633Z,81.98
2019-05-10T05:47:04.969Z,83.04
2019-05-10T05:49:33.895Z,82.54
2019-05-10T05:52:02.552Z,81.41
2019-05-10T05:54:31.245Z,80.15
2019-05-10T05:56:59.911Z,80.17
2019-05-10T05:59:28.576Z,79.79
2019-05-10T06:02:00.589Z,79.32
2019-05-10T06:04:27.657Z,78.85
2019-05-10T06:06:59.249Z,79.45
2019-05-10T06:09:31.877Z,77.47
2019-05-10T06:11:57.150Z,79.01
2019-05-10T06:14:25.843Z,78.22
2019-05-10T06:16:54.516Z,79.30
2019-05-10T06:19:29.414Z,79.03
2019-05-10T06:21:58.132Z,78.70
2019-05-10T06:24:24.016Z,79.88
2019-05-10T06:26:52.720Z,81.34
2019-05-10T06:29:21.388Z,82.83
2019-05-10T06:31:50.066Z,81.53
2019-05-10T06:34:18.730Z,82.84
2019-05-10T06:36:47.419Z,84.60
2019-05-10T06:39:16.102Z,83.99
2019-05-10T06:41:49.949Z,81.43
2019-05-10T06:44:15.164Z,83.88
2019-05-10T06:46:43.830Z,83.11
2019-05-10T06:49:12.523Z,84.61
2019-05-10T06:51:42.812Z,84.50
2019-05-10T06:54:11.622Z,84.74
2019-05-10T06:56:40.302Z,84.85
2019-05-10T06:59:13.339Z,85.57
2019-05-10T07:01:45.874Z,84.54
2019-05-10T07:04:09.769Z,83.99
2019-05-10T07:06:38.433Z,82.74
2019-05-10T07:09:07.578Z,82.92
2019-05-10T07:11:36.248Z,83.56
2019-05-10T07:14:05.002Z,83.92
2019-05-10T07:16:34.105Z,83.13
2019-05-10T07:19:02.779Z,83.07
2019-05-10T07:21:31.479Z,82.59
2019-05-10T07:24:00.182Z,84.40
2019-05-10T07:26:28.845Z,82.62
2019-05-10T07:28:59.250Z,83.40
2019-05-10T07:31:27.919Z,82.36
2019-05-10T07:33:56.595Z,81.53
2019-05-10T07:36:27.258Z,79.72
2019-05-10T07:38:55.818Z,81.63
2019-05-10T07:41:26.648Z,83.71
2019-05-10T07:44:00.396Z,82.95
2019-05-10T07:46:25.279Z,84.50
2019-05-10T07:48:54.102Z,84.78
2019-05-10T07:51:28.306Z,84.12
2019-05-10T07:53:57.092Z,84.48
2019-05-10T07:56:23.534Z,84.37
2019-05-10T07:58:52.192Z,85.75
2019-05-10T08:01:30.783Z,84.83
2019-05-10T08:03:52.526Z,84.88
2019-05-10T08:06:21.317Z,84.28
2019-05-10T08:08:49.973Z,83.50
2019-05-10T08:11:19.165Z,82.88
2019-05-10T08:13:48.610Z,81.37
2019-05-10T08:16:22.743Z,82.80
2019-05-10T08:18:49.735Z,82.56
2019-05-10T08:21:22.139Z,83.96
2019-05-10T08:23:48.754Z,83.88
2019-05-10T08:26:21.969Z,83.42
2019-05-10T08:28:47.895Z,81.66
2019-05-10T08:31:16.640Z,80.44
2019-05-10T08:33:56.179Z,81.15
2019-05-10T08:36:15.696Z,80.44
2019-05-10T08:38:50.036Z,82.25
2019-05-10T08:41:18.372Z,85.64
2019-05-10T08:43:45.505Z,85.19
2019-05-10T08:46:19.479Z,87.04
2019-05-10T08:48:50.332Z,85.66
2019-05-10T08:51:15.751Z,85.84
2019-05-10T08:53:47.105Z,84.04
2019-05-10T08:56:20.904Z,83.46
2019-05-10T08:58:45.238Z,81.79
2019-05-10T09:01:25.844Z,82.00
2019-05-10T09:03:47.141Z,78.56
2019-05-10T09:06:16.986Z,78.52
2019-05-10T09:08:45.153Z,79.45
2019-05-10T09:11:16.231Z,77.53
2019-05-10T09:13:46.204Z,77.44
2019-05-10T09:16:14.642Z,77.84
2019-05-10T09:18:50.309Z,78.65
2019-05-10T09:21:14.478Z,74.79
2019-05-10T09:23:43.348Z,74.19
2019-05-10T09:26:16.472Z,71.88
2019-05-10T09:28:42.404Z,68.57
2019-05-10T09:31:18.701Z,69.28
2019-05-10T09:33:49.293Z,67.93
2019-05-10T09:36:12.487Z,66.11
2019-05-10T09:38:43.534Z,69.09
2019-05-10T09:41:11.989Z,66.92
2019-05-10T09:43:48.336Z,70.05
2019-05-10T09:46:11.488Z,70.62
2019-05-10T09:48:44.721Z,70.86
2019-05-10T09:51:13.676Z,68.33
2019-05-10T09:53:42.637Z,68.53
2019-05-10T09:56:11.291Z,70.24
2019-05-10T09:58:40.002Z,70.62
2019-05-10T10:01:17.713Z,70.46
2019-05-10T10:03:43.308Z,72.30
2019-05-10T10:06:11.364Z,73.16
2019-05-10T10:08:43.406Z,74.87
2019-05-10T10:11:15.684Z,74.70
2019-05-10T10:13:43.926Z,72.63
2019-05-10T10:16:14.666Z,72.80
2019-05-10T10:18:41.852Z,71.96
2019-05-10T10:21:13.133Z,73.22
2019-05-10T10:23:40.999Z,73.11
2019-05-10T10:26:12.572Z,72.48
2019-05-10T10:28:40.028Z,70.02
2019-05-10T10:31:08.786Z,66.79
2019-05-10T10:33:38.025Z,63.99
2019-05-10T10:36:10.001Z,63.31
2019-05-10T10:38:45.274Z,62.06
2019-05-10T10:41:08.245Z,60.66
2019-05-10T10:43:37.399Z,58.76
2019-05-10T10:46:12.102Z,53.72
2019-05-10T10:48:37.071Z,55.08
2019-05-10T10:51:08.093Z,53.96
2019-05-10T10:53:36.315Z,55.71
2019-05-10T10:56:07.472Z,53.35
2019-05-10T10:58:35.519Z,50.87
2019-05-10T11:01:10.863Z,53.56
2019-05-10T11:03:34.681Z,52.89
2019-05-10T11:06:03.365Z,53.03
2019-05-10T11:08:33.230Z,53.30
2019-05-10T11:11:02.846Z,56.61
2019-05-10T11:13:57.549Z,58.28
2019-05-10T11:16:09.700Z,61.45
2019-05-10T11:18:32.366Z,62.63
2019-05-10T11:21:01.965Z,62.72
2019-05-10T11:23:38.654Z,62.17
2019-05-10T11:26:01.520Z,61.52
2019-05-10T11:28:38.770Z,59.79
2019-05-10T11:31:01.169Z,60.11
2019-05-10T11:33:33.345Z,55.85
2019-05-10T11:36:03.948Z,56.36
2019-05-10T11:38:31.726Z,55.80
2019-05-10T11:41:01.972Z,54.89
2019-05-10T11:43:31.417Z,54.86
2019-05-10T11:46:00.248Z,54.38
2019-05-10T11:48:36.914Z,54.73
2019-05-10T11:50:59.319Z,55.83
2019-05-10T11:53:27.975Z,56.17
2019-05-10T11:55:56.633Z,54.57
2019-05-10T11:58:25.344Z,51.76
2019-05-10T12:00:59.355Z,45.12
2019-05-10T12:03:24.423Z,49.27
2019-05-10T12:06:04.555Z,47.65
2019-05-10T12:08:23.547Z,47.01
2019-05-10T12:10:56.632Z,49.37
2019-05-10T12:13:24.953Z,48.90
2019-05-10T12:15:53.066Z,52.18
2019-05-10T12:18:26.969Z,48.65
2019-05-10T12:21:08.049Z,46.92
2019-05-10T12:23:30.145Z,47.91
2019-05-10T12:26:59.195Z,49.35
2019-05-10T12:28:28.560Z,49.28
2019-05-10T12:30:53.745Z,50.21
2019-05-10T12:33:25.783Z,48.59
2019-05-10T12:35:52.913Z,48.60
2019-05-10T12:38:23.582Z,48.35
2019-05-10T12:40:52.009Z,50.78
2019-05-10T12:43:21.205Z,53.26
2019-05-10T12:45:51.775Z,51.47
2019-05-10T12:48:23.208Z,50.81
2019-05-10T12:50:54.476Z,46.55
2019-05-10T12:53:21.572Z,48.37
2019-05-10T12:55:50.340Z,50.17
2019-05-10T12:58:19.020Z,48.76
2019-05-10T13:00:52.534Z,49.25
2019-05-10T13:03:19.477Z,49.24
2019-05-10T13:05:53.174Z,50.25
2019-05-10T13:08:18.907Z,51.45
2019-05-10T13:10:49.913Z,52.23
2019-05-10T13:13:23.748Z,48.29
2019-05-10T13:15:48.329Z,51.81
2019-05-10T13:18:16.978Z,53.17
2019-05-10T13:20:45.819Z,50.56
2019-05-10T13:23:16.339Z,51.43
2019-05-10T13:25:44.964Z,49.89
2019-05-10T13:28:13.641Z,48.71
2019-05-10T13:30:42.412Z,47.92
2019-05-10T13:33:11.062Z,46.60
2019-05-10T13:35:39.719Z,46.16
2019-05-10T13:38:08.402Z,44.81
2019-05-10T13:40:39.013Z,43.53
2019-05-10T13:43:07.441Z,43.63
2019-05-10T13:45:37.866Z,42.84
2019-05-10T13:48:07.871Z,43.10
2019-05-10T13:50:36.538Z,42.86
2019-05-10T13:53:05.296Z,43.32
2019-05-10T13:55:34.009Z,45.16
2019-05-10T13:58:02.680Z,44.63
2019-05-10T14:00:34.208Z,44.62
2019-05-10T14:03:04.837Z,40.37
2019-05-10T14:05:32.291Z,42.14
2019-05-10T14:08:00.945Z,44.00
2019-05-10T14:10:29.715Z,43.95
2019-05-10T14:13:02.713Z,43.65
2019-05-10T14:15:28.750Z,45.17
2019-05-10T14:17:57.454Z,43.89
2019-05-10T14:20:27.730Z,44.46
2019-05-10T14:22:58.784Z,43.25
2019-05-10T14:25:29.500Z,44.54
2019-05-10T14:27:57.376Z,45.10
2019-05-10T14:30:26.099Z,43.54
2019-05-10T14:32:54.779Z,41.76
2019-05-10T14:35:24.563Z,44.33
2019-05-10T14:37:53.283Z,44.67
2019-05-10T14:40:27.844Z,43.74
2019-05-10T14:42:52.358Z,44.04
2019-05-10T14:45:21.403Z,42.83
2019-05-10T14:47:50.681Z,43.71
2019-05-10T14:50:25.564Z,44.35
2019-05-10T14:52:50.063Z,46.05
2019-05-10T14:55:18.712Z,45.58
2019-05-10T14:57:47.373Z,46.75
2019-05-10T15:00:17.404Z,48.22
2019-05-10T15:02:46.055Z,48.49
2019-05-10T15:05:16.354Z,50.46
2019-05-10T15:07:45.349Z,52.26
2019-05-10T15:10:14.252Z,53.16
2019-05-10T15:12:42.931Z,53.21
2019-05-10T15:15:11.943Z,53.06
2019-05-10T15:17:40.667Z,54.46
2019-05-10T15:20:09.596Z,54.44
2019-05-10T15:22:38.264Z,54.12
2019-05-10T15:25:07.175Z,54.94
2019-05-10T15:27:35.859Z,52.78
2019-05-10T15:30:08.019Z,51.42
2019-05-10T15:32:35.987Z,51.88
2019-05-10T15:35:07.912Z,52.49
2019-05-10T15:37:40.579Z,52.78
2019-05-10T15:40:07.963Z,54.42
2019-05-10T15:42:38.449Z,58.89
2019-05-10T15:45:12.045Z,61.16
2019-05-10T15:47:49.936Z,64.38
2019-05-10T15:50:09.133Z,61.06
2019-05-10T15:52:39.626Z,66.04
2019-05-10T15:55:08.413Z,67.93
2019-05-10T15:57:37.066Z,66.04
2019-05-10T16:00:06.452Z,66.58
2019-05-10T16:02:35.137Z,58.87
2019-05-10T16:05:22.230Z,52.37
2019-05-10T16:07:34.399Z,52.53
2019-05-10T16:10:03.111Z,57.75
2019-05-10T16:12:31.761Z,56.12
2019-05-10T16:15:00.445Z,56.25
2019-05-10T16:17:29.126Z,53.53
2019-05-10T16:20:00.234Z,55.55
2019-05-10T16:22:30.233Z,57.33
2019-05-10T16:25:01.047Z,55.50
2019-05-10T16:27:33.916Z,56.39
2019-05-10T16:29:59.421Z,56.06
2019-05-10T16:32:29.440Z,55.17
2019-05-10T16:34:58.469Z,57.24
2019-05-10T16:37:27.124Z,58.40
2019-05-10T16:39:55.823Z,58.28
2019-05-10T16:42:27.831Z,60.12
2019-05-10T16:44:54.832Z,60.94
2019-05-10T16:47:23.507Z,60.35
2019-05-10T16:49:53.316Z,59.19
2019-05-10T16:52:25.993Z,61.46
2019-05-10T16:54:58.121Z,60.62
2019-05-10T16:57:23.394Z,61.42
2019-05-10T16:59:52.079Z,60.72
2019-05-10T17:02:20.731Z,61.45
2019-05-10T17:04:49.380Z,60.38
2019-05-10T17:07:18.958Z,59.37
2019-05-10T17:09:49.553Z,61.20
2019-05-10T17:12:21.948Z,58.93
2019-05-10T17:14:50.613Z,57.54
2019-05-10T17:17:19.717Z,56.68
2019-05-10T17:19:48.446Z,56.64
2019-05-10T17:22:17.117Z,54.82
2019-05-10T17:24:45.794Z,54.90
2019-05-10T17:27:14.544Z,54.88
2019-05-10T17:29:44.530Z,55.03
2019-05-10T17:32:13.648Z,55.99
2019-05-10T17:34:42.305Z,58.10
2019-05-10T17:37:10.979Z,58.70
2019-05-10T17:39:39.623Z,59.76
2019-05-10T17:42:08.384Z,61.13
2019-05-10T17:44:37.051Z,61.03
2019-05-10T17:47:05.728Z,61.78
2019-05-10T17:49:34.403Z,61.36
2019-05-10T17:52:03.099Z,64.17
2019-05-10T17:54:33.863Z,66.88
2019-05-10T17:57:02.157Z,68.71
2019-05-10T17:59:30.827Z,68.02
2019-05-10T18:01:59.558Z,68.86
2019-05-10T18:04:28.238Z,69.18
2019-05-10T18:06:56.891Z,68.47
2019-05-10T18:09:25.544Z,65.23
2019-05-10T18:11:54.229Z,62.87
2019-05-10T18:14:22.880Z,64.79
2019-05-10T18:16:51.532Z,63.75
2019-05-10T18:19:24.814Z,65.01
2019-05-10T18:21:54.962Z,70.40
2019-05-10T18:24:20.977Z,73.62
2019-05-10T18:26:49.665Z,76.44
2019-05-10T18:29:18.385Z,77.57
2019-05-10T18:31:54.822Z,78.31
2019-05-10T18:34:17.415Z,80.11
2019-05-10T18:36:51.563Z,81.18
2019-05-10T18:39:17.764Z,81.93
2019-05-10T18:41:48.015Z,81.33
2019-05-10T18:44:16.765Z,81.61
2019-05-10T18:46:45.417Z,82.54
2019-05-10T18:49:14.077Z,82.38
2019-05-10T18:51:42.768Z,82.37
2019-05-10T18:54:11.519Z,82.22
2019-05-10T18:56:40.173Z,81.86
2019-05-10T18:59:09.432Z,82.00
2019-05-10T19:01:40.299Z,82.48
2019-05-10T19:04:14.222Z,82.88
2019-05-10T19:06:44.173Z,83.39
2019-05-10T19:09:09.542Z,84.05
2019-05-10T19:11:38.949Z,84.23
2019-05-10T19:14:08.635Z,84.81
2019-05-10T19:16:37.312Z,86.56
2019-05-10T19:19:05.991Z,85.58
2019-05-10T19:21:37.710Z,86.90
2019-05-10T19:24:05.047Z,86.60
2019-05-10T19:26:33.700Z,85.94
2019-05-10T19:29:05.438Z,86.44
2019-05-10T19:31:37.950Z,86.02
2019-05-10T19:34:03.221Z,86.67
2019-05-10T19:36:31.903Z,87.74
2019-05-10T19:39:00.562Z,88.05
2019-05-10T19:41:29.221Z,88.06
2019-05-10T19:44:02.528Z,88.20
2019-05-10T19:46:30.095Z,88.74
2019-05-10T19:48:58.759Z,88.98
2019-05-10T19:51:27.418Z,90.11
2019-05-10T19:53:56.124Z,90.34
2019-05-10T19:56:30.102Z,90.57
2019-05-10T19:58:55.252Z,90.54
2019-05-10T20:01:23.912Z,90.61
2019-05-10T20:03:52.594Z,90.79
2019-05-10T20:06:21.276Z,91.12
2019-05-10T20:08:49.941Z,90.93
2019-05-10T20:11:18.621Z,91.04
2019-05-10T20:13:47.321Z,91.74
2019-05-10T20:16:15.982Z,91.64
2019-05-10T20:18:44.638Z,91.63
2019-05-10T20:21:13.385Z,91.30
2019-05-10T20:23:41.988Z,91.20
2019-05-10T20:26:10.645Z,91.33
2019-05-10T20:28:39.325Z,90.94
2019-05-10T20:31:08.060Z,90.91
2019-05-10T20:33:36.709Z,91.26
2019-05-10T20:36:05.407Z,91.21
2019-05-10T20:38:34.068Z,92.03
2019-05-10T20:41:02.728Z,92.43
2019-05-10T20:43:31.516Z,92.99
2019-05-10T20:46:00.176Z,93.18
2019-05-10T20:48:28.846Z,92.99
2019-05-10T20:50:57.577Z,92.61
2019-05-10T20:53:26.317Z,92.48
2019-05-10T20:55:54.974Z,92.54
2019-05-10T20:58:23.648Z,93.36
2019-05-10T21:00:52.315Z,93.83
2019-05-10T21:03:20.999Z,94.07
2019-05-10T21:05:49.975Z,94.77
2019-05-10T21:08:18.657Z,94.98
2019-05-10T21:10:47.312Z,94.76
2019-05-10T21:13:16.076Z,95.24
2019-05-10T21:15:44.778Z,94.83
2019-05-10T21:18:13.467Z,94.66
2019-05-10T21:20:42.128Z,94.53
2019-05-10T21:23:10.833Z,94.40
2019-05-10T21:25:39.497Z,94.25
2019-05-10T21:28:08.173Z,94.30
2019-05-10T21:30:36.869Z,94.66
2019-05-10T21:33:05.550Z,94.87
2019-05-10T21:35:34.215Z,94.99
2019-05-10T21:38:02.903Z,94.99
2019-05-10T21:40:31.561Z,95.14
2019-05-10T21:43:00.265Z,95.26
2019-05-10T21:45:28.930Z,95.33
2019-05-10T21:47:57.586Z,95.43
2019-05-10T21:50:26.270Z,95.56
2019-05-10T21:52:54.956Z,95.46
2019-05-10T21:55:23.613Z,95.49
2019-05-10T21:57:52.379Z,95.91
2019-05-10T22:00:23.925Z,96.14
2019-05-10T22:02:52.683Z,96.08
2019-05-10T22:05:21.379Z,95.84
2019-05-10T22:07:50.138Z,95.88
2019-05-10T22:10:18.877Z,95.88
2019-05-10T22:12:47.552Z,95.89
2019-05-10T22:15:16.246Z,96.30
2019-05-10T22:17:44.935Z,96.34
2019-05-10T22:20:13.745Z,96.25
2019-05-10T22:22:42.407Z,96.28
2019-05-10T22:25:11.165Z,96.29
2019-05-10T22:27:39.862Z,96.23
2019-05-10T22:30:12.152Z,96.23
2019-05-10T22:32:40.119Z,96.24
2019-05-10T22:35:08.950Z,96.55
2019-05-10T22:37:37.603Z,96.44
2019-05-10T22:40:06.679Z,96.75
2019-05-10T22:42:35.362Z,96.83
2019-05-10T22:45:04.174Z,97.13
2019-05-10T22:47:32.828Z,97.09
2019-05-10T22:50:01.493Z,97.02
2019-05-10T22:52:30.180Z,96.78
2019-05-10T22:55:00.606Z,96.75
2019-05-10T22:57:29.217Z,97.05
2019-05-10T22:59:57.902Z,97.07
2019-05-10T23:02:26.646Z,96.85
2019-05-10T23:04:55.263Z,96.72
2019-05-10T23:07:23.919Z,96.85
2019-05-10T23:09:52.606Z,97.02
2019-05-10T23:12:21.264Z,97.16
2019-05-10T23:14:50.002Z,97.31
2019-05-10T23:17:18.678Z,97.54
2019-05-10T23:19:47.337Z,97.69
2019-05-10T23:22:16.018Z,97.92
2019-05-10T23:24:44.758Z,98.02
2019-05-10T23:27:13.465Z,97.86
2019-05-10T23:29:42.148Z,98.40
2019-05-10T23:32:10.838Z,98.20
2019-05-10T23:34:39.546Z,97.91
2019-05-10T23:37:08.200Z,97.82
2019-05-10T23:39:40.918Z,97.83
2019-05-10T23:42:07.266Z,97.81
2019-05-10T23:44:35.974Z,97.82
2019-05-10T23:47:04.637Z,97.91
2019-05-10T23:49:33.408Z,97.95
2019-05-10T23:52:02.242Z,97.99
2019-05-10T23:54:30.930Z,98.42
2019-05-10T23:56:59.653Z,98.78
2019-05-10T23:59:28.308Z,98.66
